Aktualne dane pomiarowe

Uwaga, wersja testowa! Automatyczne pobieranie danych za pomocą narzędzi lub skryptów to umożliwiających jest zabronione.

Dane meteo z obszaru Polski uzyskane na podstawie depesz SYNOP pobieranych co godzinę z NWS. Najedź myszką na symbol przedstawiony w tabeli, aby uzyskać informacje co do jego znaczenia. Prosimy pamiętać, że to testowa wersja strony, która jeszcze nie jest ukończona. Stworzono również jest krótki FAQ dotyczący korzystania z tej podstrony Anomalie temperatury w chwili obecnej odniesione są do okresu referencyjnego 1951-2016. Okres ten będzie później zmieniony na 1981-2010. Kliknij ikonę aby pobrać plik CSV. Kliknij ikonę aby wygenerować mapę synoptyczną dla danego terminu.

Wybierz Datę:    

        

Olsztyn (12272)

Dane terminowe dla wybranej stacji. Kliknij datę, aby otrzymać dane z tego terminu dla wszystkich stacji.

TemperaturaZachmurzenieWiatrCiśnienieOpadyPogoda
 Data t td wb tx tn tg rh  Nt Nl Cl Cm Ch ws wd g1 g2 wx mslp ppp ch 24h 12h t ww ww w1 w2  
2019-08-08 23:00:00 13.4 12.8 12.9--- 9618.0wx-2wx--21010.5 994.2 0.7---------
2019-08-08 22:00:00 13.8 13.0 13.2--- 9530.0wxwxwx2wx--21010.4 994.1 -0.6---wx---
2019-08-08 21:00:00 14.3 12.8 13.2--- 918.0wxwxwx3wx81131011.4 995.1 1.7---wx-w1w2--
2019-08-08 20:00:00 14.5 13.2 13.6--- 9240.0wxwxwx2wx---1009.8 993.5 0.5---wx-w1--
2019-08-08 19:00:00 16.1 12.8 13.9--- 8110.0wxwxwx5wx111151010.9 994.7 1.7---wx-w1--
2019-08-08 18:00:00 18.2 15.8 16.5 21.0 14.9- 8640.0wxwxwx0---01009.5 993.4 0.1- 11.012------
2019-08-08 17:00:00 20.0 14.6 16.4--- 7145.0wxwxwx2wx--21009.0 993.0 0.3---------
2019-08-08 16:00:00 20.5 14.2 16.4--- 6750.0wxwxwxwx2wx---1008.9 993.0 0.3---------
2019-08-08 15:00:00 20.2 14.8 16.6--- 7150.0wxwxwxwx4wx--41009.2 993.3 0.6---------
2019-08-08 14:00:00 19.3 15.6 16.8--- 7940.0wxwxwxwx2wx--21008.7 992.7 1.2---------
2019-08-08 13:00:00 19.7 15.6 16.9--- 7740.0wxwxwxwx3wx--31008.7 992.7 1.7---------
2019-08-08 12:00:00 16.0 14.4 14.9--- 9045.0wxwxwx3wx-1731008.9 992.7 1.9- 11.06wx-w1w2--
2019-08-08 11:00:00 19.1 17.1 17.7--- 8830.0wxwxwx4wx--41007.5 991.5 1.0---wx-w1--
2019-08-08 10:00:00 18.4 14.9 16.0--- 807.0wxwxwx5wx--51007.0 991.0 1.4---wx-w1--
2019-08-08 09:00:00 19.2 16.6 17.4--- 8540.0wxwxwx4wx9941006.8 990.8 2.4---wx-w1--
2019-08-08 08:00:00 17.3 15.3 15.9--- 8840.0wxwxwx2wx--21006.6 990.5 3.0---wx---
2019-08-08 07:00:00 15.9 14.6 15.0--- 928.0wxwxwx6wx--61005.7 989.6 2.1---wx-w1--
2019-08-08 06:00:00 17.8 16.7 17.0 22.1 17.3 17 938.0wxwxwx5wx-851004.4 988.4 0.8 20.1 20.012wx-w1--
2019-08-08 05:00:00 17.3 16.3 16.6--- 948.0wxwxwx4wx---1003.5 987.5 -0.4---wx---
2019-08-08 04:00:00 17.3 16.3 16.6--- 948.0wxwxwx3wx---1003.5 987.5 -0.4---wx---
2019-08-08 03:00:00 17.5 16.7 16.9--- 958.0wxwxwx2wx--21003.6 987.6 -0.7---wx-w1--
2019-08-08 02:00:00 17.5 16.7 16.9--- 958.0wxwxwx2wx--21003.9 987.9 -0.6---wx---
2019-08-08 01:00:00 17.6 17.0 17.2--- 966.0wxwxwx1wx--11003.9 987.9 -1.1---wx-w1w2--
2019-08-08 00:00:00 17.5 16.9 17.1--- 960.6wxwxwx2wx--21004.3 988.3 -0.8- 17.06wx-w1w2--
2019-08-07 23:00:00 17.9 16.8 17.1--- 9310.0wxwxwx1wx--11004.5 988.5 -0.7---wx-w1--
2019-08-07 22:00:00 18.0 16.7 17.1--- 9215.0wxwxwx2wx--21005.0 989.0 -0.4---wx-w1--
2019-08-07 21:00:00 20.4 16.2 17.5--- 7725.0wxwxwx2wx---1005.0 989.1 -0.8---wx-w1--
2019-08-07 20:00:00 20.9 15.4 17.2--- 7140.0wxwxwxwx2wx---1005.0 989.2 -1.0---------
2019-08-07 19:00:00 21.2 15.9 17.6--- 7235.0wx-wx3wx---1005.2 989.4 -0.8---------
2019-08-07 18:00:00 22.1 15.9 18.0 25.6 17.1- 6845.0wx-wxwx0--701005.7 989.9 -0.8- 0.012------
2019-08-07 17:00:00 24.1 15.6 18.6--- 5935.0wxwxwxwxwx0---01005.9 990.2 -0.7---------
2019-08-07 16:00:00 24.9 14.1 18.1--- 5135.0wxwxwxwx2wx--21005.8 990.2 -1.2---------
2019-08-07 15:00:00 25.6 13.8 18.2--- 4840.0wxwxwxwx2wx-721006.3 990.7 -1.2---------
2019-08-07 14:00:00 24.9 13.1 17.6--- 4835.0wxwxwxwx2wx7--1006.6 990.9 -1.2---------
2019-08-07 13:00:00 24.9 15.0 18.6--- 5435.0wxwxwxwx2wx--21007.1 991.4 -1.0---------
2019-08-07 12:00:00 24.2 15.7 18.7--- 5930.0wxwxwxwx2wx--21007.6 991.9 -0.5- 0.06------
2019-08-07 11:00:00 23.5 16.0 18.6--- 6335.0wxwxwxwx2wx--21007.8 992.1 -0.3---------
2019-08-07 10:00:00 21.7 16.4 18.1--- 7235.0wxwxwxwx2wx--21008.2 992.4 0.1---------
2019-08-07 09:00:00 21.0 16.4 17.9--- 7530.0wxwxwxwx1wx---1008.3 992.4 0.3---------
2019-08-07 08:00:00 20.5 17.3 18.2--- 8230.0wxwxwxwx1wx--11008.3 992.4 0.7---------
2019-08-07 07:00:00 18.6 17.3 17.7--- 9215.0wxwxwxwxwx1wx--11008.3 992.3 0.6---------
2019-08-07 06:00:00 17.1 16.3 16.5 17.6 15.5 15 9510.0wxwxwxwx1wx--11008.2 992.1 0.6 9.6 2.012wx-w1w2--
2019-08-07 05:00:00 16.5 15.9 16.0--- 9610.0wxwxwxwx1wx--11007.8 991.7 -0.6---------
2019-08-07 04:00:00 16.0 15.4 15.5--- 9615.0wxwxwxwx2wx---1007.9 991.7 -0.1---------
2019-08-07 03:00:00 16.1 15.3 15.5--- 9510.0wxwxwxwx1wx--11007.6 991.5 -0.3---wx-w1--
2019-08-07 02:00:00 16.4 15.4 15.7--- 9413.0wxwxwx2wx--21008.4 992.3 -0.1---wx---
2019-08-07 01:00:00 16.0 15.2 15.4--- 9515.0wxwxwxwx1wx--11008.0 991.8 -1.4---------
2019-08-07 00:00:00 16.1 15.3 15.5--- 9510.0wxwxwx1wx--11007.9 991.8 -0.6- 1.06wx-w1--
2.6 ms

 

Print Friendly, PDF & Email